sensor_id;sensor_type;location;lat;lon;timestamp;temperature;humidity
27667;DHT22;15074;50.940;5.282;2022-12-07T00:01:40;4.70;99.90
27667;DHT22;15074;50.940;5.282;2022-12-07T00:04:09;4.50;99.90
27667;DHT22;15074;50.940;5.282;2022-12-07T00:06:41;4.50;99.90
27667;DHT22;15074;50.940;5.282;2022-12-07T00:09:13;4.40;99.90
27667;DHT22;15074;50.940;5.282;2022-12-07T00:11:39;4.40;99.90
27667;DHT22;15074;50.940;5.282;2022-12-07T00:14:07;4.40;99.90
27667;DHT22;15074;50.940;5.282;2022-12-07T00:16:34;4.60;99.90
27667;DHT22;15074;50.940;5.282;2022-12-07T00:19:00;4.60;99.90
27667;DHT22;15074;50.940;5.282;2022-12-07T00:21:28;4.70;99.90
27667;DHT22;15074;50.940;5.282;2022-12-07T00:23:55;4.70;99.90
27667;DHT22;15074;50.940;5.282;2022-12-07T00:26:27;4.70;99.90
27667;DHT22;15074;50.940;5.282;2022-12-07T00:28:55;4.60;99.90
27667;DHT22;15074;50.940;5.282;2022-12-07T00:31:22;4.40;99.90
27667;DHT22;15074;50.940;5.282;2022-12-07T00:33:48;4.20;99.90
27667;DHT22;15074;50.940;5.282;2022-12-07T00:36:17;4.10;99.90
27667;DHT22;15074;50.940;5.282;2022-12-07T00:38:43;4.10;99.90
27667;DHT22;15074;50.940;5.282;2022-12-07T00:41:15;4.20;99.90
27667;DHT22;15074;50.940;5.282;2022-12-07T00:43:42;4.30;99.90
27667;DHT22;15074;50.940;5.282;2022-12-07T00:46:08;4.40;99.90
27667;DHT22;15074;50.940;5.282;2022-12-07T00:48:34;4.50;99.90
27667;DHT22;15074;50.940;5.282;2022-12-07T00:51:00;4.70;99.90
27667;DHT22;15074;50.940;5.282;2022-12-07T00:53:27;4.80;99.90
27667;DHT22;15074;50.940;5.282;2022-12-07T00:55:53;4.80;99.90
27667;DHT22;15074;50.940;5.282;2022-12-07T00:58:19;4.80;99.90
27667;DHT22;15074;50.940;5.282;2022-12-07T01:00:45;4.80;99.90
27667;DHT22;15074;50.940;5.282;2022-12-07T01:03:13;4.90;99.90
27667;DHT22;15074;50.940;5.282;2022-12-07T01:05:39;4.90;99.90
27667;DHT22;15074;50.940;5.282;2022-12-07T01:08:06;5.00;99.90
27667;DHT22;15074;50.940;5.282;2022-12-07T01:10:32;4.90;99.90
27667;DHT22;15074;50.940;5.282;2022-12-07T01:12:58;4.90;99.90
27667;DHT22;15074;50.940;5.282;2022-12-07T01:15:24;4.90;99.90
27667;DHT22;15074;50.940;5.282;2022-12-07T01:17:50;5.00;99.90
27667;DHT22;15074;50.940;5.282;2022-12-07T01:20:16;5.00;99.90
27667;DHT22;15074;50.940;5.282;2022-12-07T01:22:43;5.00;99.90
27667;DHT22;15074;50.940;5.282;2022-12-07T01:25:10;5.00;99.90
27667;DHT22;15074;50.940;5.282;2022-12-07T01:27:37;5.00;99.90
27667;DHT22;15074;50.940;5.282;2022-12-07T01:30:05;5.10;99.90
27667;DHT22;15074;50.940;5.282;2022-12-07T01:32:32;5.10;99.90
27667;DHT22;15074;50.940;5.282;2022-12-07T01:34:57;5.20;99.90
27667;DHT22;15074;50.940;5.282;2022-12-07T01:37:23;5.30;99.90
27667;DHT22;15074;50.940;5.282;2022-12-07T01:39:49;5.30;99.90
27667;DHT22;15074;50.940;5.282;2022-12-07T01:42:16;5.30;99.90
27667;DHT22;15074;50.940;5.282;2022-12-07T01:47:50;5.20;99.90
27667;DHT22;15074;50.940;5.282;2022-12-07T01:50:17;5.20;99.90
27667;DHT22;15074;50.940;5.282;2022-12-07T01:52:43;5.20;99.90
27667;DHT22;15074;50.940;5.282;2022-12-07T01:55:12;5.20;99.90
27667;DHT22;15074;50.940;5.282;2022-12-07T01:57:42;5.20;99.90
27667;DHT22;15074;50.940;5.282;2022-12-07T02:00:09;5.10;99.90
27667;DHT22;15074;50.940;5.282;2022-12-07T02:05:27;5.10;99.90
27667;DHT22;15074;50.940;5.282;2022-12-07T02:07:55;5.10;99.90
27667;DHT22;15074;50.940;5.282;2022-12-07T02:10:23;5.00;99.90
27667;DHT22;15074;50.940;5.282;2022-12-07T02:12:56;4.80;99.90
27667;DHT22;15074;50.940;5.282;2022-12-07T02:15:26;4.70;99.90
27667;DHT22;15074;50.940;5.282;2022-12-07T02:18:13;4.60;99.90
27667;DHT22;15074;50.940;5.282;2022-12-07T02:20:57;4.60;99.90
27667;DHT22;15074;50.940;5.282;2022-12-07T02:23:41;4.70;99.90
27667;DHT22;15074;50.940;5.282;2022-12-07T02:32:26;4.70;99.90
27667;DHT22;15074;50.940;5.282;2022-12-07T02:35:05;4.70;99.90
27667;DHT22;15074;50.940;5.282;2022-12-07T02:37:55;4.80;99.90
27667;DHT22;15074;50.940;5.282;2022-12-07T02:40:54;4.90;99.90
27667;DHT22;15074;50.940;5.282;2022-12-07T02:43:29;5.00;99.90
27667;DHT22;15074;50.940;5.282;2022-12-07T02:46:02;5.00;99.90
27667;DHT22;15074;50.940;5.282;2022-12-07T02:48:31;5.10;99.90
27667;DHT22;15074;50.940;5.282;2022-12-07T02:50:58;5.10;99.90
27667;DHT22;15074;50.940;5.282;2022-12-07T02:53:39;5.10;99.90
27667;DHT22;15074;50.940;5.282;2022-12-07T02:56:29;5.10;99.90
27667;DHT22;15074;50.940;5.282;2022-12-07T03:02:01;5.10;99.90
27667;DHT22;15074;50.940;5.282;2022-12-07T03:04:48;5.20;99.90
27667;DHT22;15074;50.940;5.282;2022-12-07T03:07:33;5.20;99.90
27667;DHT22;15074;50.940;5.282;2022-12-07T03:15:34;5.00;99.90
27667;DHT22;15074;50.940;5.282;2022-12-07T03:18:02;5.00;99.90
27667;DHT22;15074;50.940;5.282;2022-12-07T03:20:29;5.00;99.90
27667;DHT22;15074;50.940;5.282;2022-12-07T03:22:59;4.90;99.90
27667;DHT22;15074;50.940;5.282;2022-12-07T03:25:26;4.90;99.90
27667;DHT22;15074;50.940;5.282;2022-12-07T03:27:56;4.90;99.90
27667;DHT22;15074;50.940;5.282;2022-12-07T03:30:27;4.80;99.90
27667;DHT22;15074;50.940;5.282;2022-12-07T03:33:08;4.90;99.90
27667;DHT22;15074;50.940;5.282;2022-12-07T03:35:43;4.80;99.90
27667;DHT22;15074;50.940;5.282;2022-12-07T03:38:26;4.90;99.90
27667;DHT22;15074;50.940;5.282;2022-12-07T03:41:23;4.90;99.90
27667;DHT22;15074;50.940;5.282;2022-12-07T03:43:47;4.90;99.90
27667;DHT22;15074;50.940;5.282;2022-12-07T03:51:32;4.80;99.90
27667;DHT22;15074;50.940;5.282;2022-12-07T03:54:24;4.90;99.90
27667;DHT22;15074;50.940;5.282;2022-12-07T03:56:52;4.90;99.90
27667;DHT22;15074;50.940;5.282;2022-12-07T03:59:19;4.80;99.90
27667;DHT22;15074;50.940;5.282;2022-12-07T04:01:55;4.80;99.90
27667;DHT22;15074;50.940;5.282;2022-12-07T04:04:23;4.80;99.90
27667;DHT22;15074;50.940;5.282;2022-12-07T04:06:49;4.80;99.90
27667;DHT22;15074;50.940;5.282;2022-12-07T04:09:15;4.80;99.90
27667;DHT22;15074;50.940;5.282;2022-12-07T04:11:41;4.70;99.90
27667;DHT22;15074;50.940;5.282;2022-12-07T04:14:07;4.60;99.90
27667;DHT22;15074;50.940;5.282;2022-12-07T04:16:46;4.50;99.90
27667;DHT22;15074;50.940;5.282;2022-12-07T04:19:12;4.40;99.90
27667;DHT22;15074;50.940;5.282;2022-12-07T04:21:39;4.40;99.90
27667;DHT22;15074;50.940;5.282;2022-12-07T04:24:05;4.30;99.90
27667;DHT22;15074;50.940;5.282;2022-12-07T04:26:31;4.10;99.90
27667;DHT22;15074;50.940;5.282;2022-12-07T04:28:56;4.00;99.90
27667;DHT22;15074;50.940;5.282;2022-12-07T04:31:22;4.00;99.90
27667;DHT22;15074;50.940;5.282;2022-12-07T04:33:48;3.90;99.90
27667;DHT22;15074;50.940;5.282;2022-12-07T04:36:13;3.90;99.90
27667;DHT22;15074;50.940;5.282;2022-12-07T04:38:39;3.80;99.90
27667;DHT22;15074;50.940;5.282;2022-12-07T04:41:06;3.60;99.90
27667;DHT22;15074;50.940;5.282;2022-12-07T04:43:33;3.50;99.90
27667;DHT22;15074;50.940;5.282;2022-12-07T04:45:58;3.50;99.90
27667;DHT22;15074;50.940;5.282;2022-12-07T04:48:24;3.70;99.90
27667;DHT22;15074;50.940;5.282;2022-12-07T04:50:49;3.80;99.90
27667;DHT22;15074;50.940;5.282;2022-12-07T04:53:15;3.80;99.90
27667;DHT22;15074;50.940;5.282;2022-12-07T04:55:41;3.90;99.90
27667;DHT22;15074;50.940;5.282;2022-12-07T04:58:07;4.00;99.90
27667;DHT22;15074;50.940;5.282;2022-12-07T05:00:32;4.10;99.90
27667;DHT22;15074;50.940;5.282;2022-12-07T05:02:58;4.10;99.90
27667;DHT22;15074;50.940;5.282;2022-12-07T05:05:24;4.00;99.90
27667;DHT22;15074;50.940;5.282;2022-12-07T05:07:50;3.80;99.90
27667;DHT22;15074;50.940;5.282;2022-12-07T05:10:16;3.50;99.90
27667;DHT22;15074;50.940;5.282;2022-12-07T05:12:41;3.50;99.90
27667;DHT22;15074;50.940;5.282;2022-12-07T05:15:07;3.60;99.90
27667;DHT22;15074;50.940;5.282;2022-12-07T05:17:33;3.50;99.90
27667;DHT22;15074;50.940;5.282;2022-12-07T05:19:59;3.60;99.90
27667;DHT22;15074;50.940;5.282;2022-12-07T05:22:24;3.60;99.90
27667;DHT22;15074;50.940;5.282;2022-12-07T05:24:54;3.40;99.90
27667;DHT22;15074;50.940;5.282;2022-12-07T05:27:20;3.30;99.90
27667;DHT22;15074;50.940;5.282;2022-12-07T05:29:45;3.30;99.90
27667;DHT22;15074;50.940;5.282;2022-12-07T05:32:11;3.30;99.90
27667;DHT22;15074;50.940;5.282;2022-12-07T05:34:37;3.30;99.90
27667;DHT22;15074;50.940;5.282;2022-12-07T05:37:03;3.30;99.90
27667;DHT22;15074;50.940;5.282;2022-12-07T05:39:28;3.20;99.90
27667;DHT22;15074;50.940;5.282;2022-12-07T05:41:54;3.20;99.90
27667;DHT22;15074;50.940;5.282;2022-12-07T05:44:45;3.20;99.90
27667;DHT22;15074;50.940;5.282;2022-12-07T05:47:12;3.30;99.90
27667;DHT22;15074;50.940;5.282;2022-12-07T05:49:38;3.40;99.90
27667;DHT22;15074;50.940;5.282;2022-12-07T05:52:05;3.50;99.90
27667;DHT22;15074;50.940;5.282;2022-12-07T05:54:31;3.50;99.90
27667;DHT22;15074;50.940;5.282;2022-12-07T05:56:57;3.40;99.90
27667;DHT22;15074;50.940;5.282;2022-12-07T05:59:23;3.40;99.90
27667;DHT22;15074;50.940;5.282;2022-12-07T06:01:53;3.50;99.90
27667;DHT22;15074;50.940;5.282;2022-12-07T06:04:20;3.60;99.90
27667;DHT22;15074;50.940;5.282;2022-12-07T06:06:46;3.70;99.90
27667;DHT22;15074;50.940;5.282;2022-12-07T06:09:12;3.70;99.90
27667;DHT22;15074;50.940;5.282;2022-12-07T06:11:39;3.60;99.90
27667;DHT22;15074;50.940;5.282;2022-12-07T06:14:23;3.60;99.90
27667;DHT22;15074;50.940;5.282;2022-12-07T06:16:49;3.60;99.90
27667;DHT22;15074;50.940;5.282;2022-12-07T06:19:15;3.60;99.90
27667;DHT22;15074;50.940;5.282;2022-12-07T06:21:41;3.70;99.90
27667;DHT22;15074;50.940;5.282;2022-12-07T06:24:07;3.70;99.90
27667;DHT22;15074;50.940;5.282;2022-12-07T06:26:33;3.70;99.90
27667;DHT22;15074;50.940;5.282;2022-12-07T06:28:58;3.70;99.90
27667;DHT22;15074;50.940;5.282;2022-12-07T06:31:24;3.80;99.90
27667;DHT22;15074;50.940;5.282;2022-12-07T06:33:50;3.80;99.90
27667;DHT22;15074;50.940;5.282;2022-12-07T06:36:15;4.00;99.90
27667;DHT22;15074;50.940;5.282;2022-12-07T06:38:41;4.10;99.90
27667;DHT22;15074;50.940;5.282;2022-12-07T06:41:06;4.20;99.90
27667;DHT22;15074;50.940;5.282;2022-12-07T06:43:32;4.30;99.90
27667;DHT22;15074;50.940;5.282;2022-12-07T06:45:58;4.50;99.90
27667;DHT22;15074;50.940;5.282;2022-12-07T06:48:24;4.50;99.90
27667;DHT22;15074;50.940;5.282;2022-12-07T06:50:49;4.50;99.90
27667;DHT22;15074;50.940;5.282;2022-12-07T06:53:15;4.50;99.90
27667;DHT22;15074;50.940;5.282;2022-12-07T06:55:42;4.40;99.90
27667;DHT22;15074;50.940;5.282;2022-12-07T06:58:07;4.40;99.90
27667;DHT22;15074;50.940;5.282;2022-12-07T07:00:33;4.30;99.90
27667;DHT22;15074;50.940;5.282;2022-12-07T07:03:00;4.10;99.90
27667;DHT22;15074;50.940;5.282;2022-12-07T07:05:26;4.00;99.90
27667;DHT22;15074;50.940;5.282;2022-12-07T07:07:52;4.00;99.90
27667;DHT22;15074;50.940;5.282;2022-12-07T07:10:17;4.00;99.90
27667;DHT22;15074;50.940;5.282;2022-12-07T07:12:43;3.90;99.90
27667;DHT22;15074;50.940;5.282;2022-12-07T07:15:09;3.80;99.90
27667;DHT22;15074;50.940;5.282;2022-12-07T07:17:36;3.60;99.90
27667;DHT22;15074;50.940;5.282;2022-12-07T07:20:02;3.60;99.90
27667;DHT22;15074;50.940;5.282;2022-12-07T07:22:28;3.50;99.90
27667;DHT22;15074;50.940;5.282;2022-12-07T07:24:54;3.30;99.90
27667;DHT22;15074;50.940;5.282;2022-12-07T07:27:19;3.20;99.90
27667;DHT22;15074;50.940;5.282;2022-12-07T07:29:45;3.20;99.90
27667;DHT22;15074;50.940;5.282;2022-12-07T07:32:10;3.10;99.90
27667;DHT22;15074;50.940;5.282;2022-12-07T07:34:36;3.20;99.90
27667;DHT22;15074;50.940;5.282;2022-12-07T07:37:02;3.10;99.90
27667;DHT22;15074;50.940;5.282;2022-12-07T07:39:27;3.10;99.90
27667;DHT22;15074;50.940;5.282;2022-12-07T07:41:53;3.10;99.90
27667;DHT22;15074;50.940;5.282;2022-12-07T07:44:18;3.10;99.90
27667;DHT22;15074;50.940;5.282;2022-12-07T07:46:50;3.00;99.90
27667;DHT22;15074;50.940;5.282;2022-12-07T07:49:16;3.00;99.90
27667;DHT22;15074;50.940;5.282;2022-12-07T07:51:41;2.90;99.90
27667;DHT22;15074;50.940;5.282;2022-12-07T07:54:07;3.00;99.90
27667;DHT22;15074;50.940;5.282;2022-12-07T07:56:33;2.90;99.90
27667;DHT22;15074;50.940;5.282;2022-12-07T07:58:58;2.90;99.90
27667;DHT22;15074;50.940;5.282;2022-12-07T08:01:24;2.90;99.90
27667;DHT22;15074;50.940;5.282;2022-12-07T08:03:49;2.90;99.90
27667;DHT22;15074;50.940;5.282;2022-12-07T08:06:15;2.90;99.90
27667;DHT22;15074;50.940;5.282;2022-12-07T08:08:41;2.90;99.90
27667;DHT22;15074;50.940;5.282;2022-12-07T08:11:08;2.90;99.90
27667;DHT22;15074;50.940;5.282;2022-12-07T08:13:35;2.90;99.90
27667;DHT22;15074;50.940;5.282;2022-12-07T08:16:09;3.00;99.90
27667;DHT22;15074;50.940;5.282;2022-12-07T08:18:36;3.10;99.90
27667;DHT22;15074;50.940;5.282;2022-12-07T08:21:02;3.20;99.90
27667;DHT22;15074;50.940;5.282;2022-12-07T08:23:29;3.30;99.90
27667;DHT22;15074;50.940;5.282;2022-12-07T08:25:59;3.40;99.90
27667;DHT22;15074;50.940;5.282;2022-12-07T08:28:25;3.60;99.90
27667;DHT22;15074;50.940;5.282;2022-12-07T08:30:50;3.60;99.90
27667;DHT22;15074;50.940;5.282;2022-12-07T08:33:17;3.70;99.90
27667;DHT22;15074;50.940;5.282;2022-12-07T08:35:42;3.80;99.90
27667;DHT22;15074;50.940;5.282;2022-12-07T08:38:08;3.90;99.90
27667;DHT22;15074;50.940;5.282;2022-12-07T08:40:34;4.00;99.90
27667;DHT22;15074;50.940;5.282;2022-12-07T08:43:00;4.20;99.90
27667;DHT22;15074;50.940;5.282;2022-12-07T08:45:26;4.70;99.90
27667;DHT22;15074;50.940;5.282;2022-12-07T08:48:06;5.30;99.90
27667;DHT22;15074;50.940;5.282;2022-12-07T08:50:33;5.70;99.90
27667;DHT22;15074;50.940;5.282;2022-12-07T08:53:00;6.20;99.90
27667;DHT22;15074;50.940;5.282;2022-12-07T08:55:27;6.10;99.90
27667;DHT22;15074;50.940;5.282;2022-12-07T08:57:53;6.00;99.90
27667;DHT22;15074;50.940;5.282;2022-12-07T09:00:19;6.10;99.90
27667;DHT22;15074;50.940;5.282;2022-12-07T09:02:45;6.00;99.90
27667;DHT22;15074;50.940;5.282;2022-12-07T09:05:12;6.50;99.90
27667;DHT22;15074;50.940;5.282;2022-12-07T09:07:40;7.40;99.90
27667;DHT22;15074;50.940;5.282;2022-12-07T09:10:07;8.20;99.90
27667;DHT22;15074;50.940;5.282;2022-12-07T09:12:33;8.90;99.90
27667;DHT22;15074;50.940;5.282;2022-12-07T09:14:58;9.20;99.90
27667;DHT22;15074;50.940;5.282;2022-12-07T09:17:26;8.70;99.90
27667;DHT22;15074;50.940;5.282;2022-12-07T09:19:52;8.70;99.90
27667;DHT22;15074;50.940;5.282;2022-12-07T09:22:18;8.30;99.90
27667;DHT22;15074;50.940;5.282;2022-12-07T09:24:43;7.40;99.90
27667;DHT22;15074;50.940;5.282;2022-12-07T09:27:11;6.80;99.90
27667;DHT22;15074;50.940;5.282;2022-12-07T09:29:37;6.40;99.90
27667;DHT22;15074;50.940;5.282;2022-12-07T09:32:02;6.10;99.90
27667;DHT22;15074;50.940;5.282;2022-12-07T09:34:31;5.90;99.90
27667;DHT22;15074;50.940;5.282;2022-12-07T09:36:57;5.80;99.90
27667;DHT22;15074;50.940;5.282;2022-12-07T09:39:23;5.70;99.90
27667;DHT22;15074;50.940;5.282;2022-12-07T09:41:49;5.70;99.90
27667;DHT22;15074;50.940;5.282;2022-12-07T09:44:20;5.60;99.90
27667;DHT22;15074;50.940;5.282;2022-12-07T09:46:47;5.70;99.90
27667;DHT22;15074;50.940;5.282;2022-12-07T09:49:21;5.80;99.90
27667;DHT22;15074;50.940;5.282;2022-12-07T09:51:58;5.90;99.90
27667;DHT22;15074;50.940;5.282;2022-12-07T09:54:24;6.10;99.90
27667;DHT22;15074;50.940;5.282;2022-12-07T09:56:50;6.10;99.90
27667;DHT22;15074;50.940;5.282;2022-12-07T09:59:19;6.20;99.90
27667;DHT22;15074;50.940;5.282;2022-12-07T10:01:47;6.40;99.90
27667;DHT22;15074;50.940;5.282;2022-12-07T10:06:45;8.70;99.90
27667;DHT22;15074;50.940;5.282;2022-12-07T10:09:12;9.40;99.90
27667;DHT22;15074;50.940;5.282;2022-12-07T10:11:58;10.60;99.90
27667;DHT22;15074;50.940;5.282;2022-12-07T10:14:23;10.90;99.90
27667;DHT22;15074;50.940;5.282;2022-12-07T10:16:49;10.40;99.90
27667;DHT22;15074;50.940;5.282;2022-12-07T10:19:32;10.00;99.90
27667;DHT22;15074;50.940;5.282;2022-12-07T10:22:13;9.30;99.90
27667;DHT22;15074;50.940;5.282;2022-12-07T10:24:40;9.00;99.90
27667;DHT22;15074;50.940;5.282;2022-12-07T10:27:37;8.90;99.90
27667;DHT22;15074;50.940;5.282;2022-12-07T10:30:07;8.30;99.90
27667;DHT22;15074;50.940;5.282;2022-12-07T10:32:36;8.30;99.90
27667;DHT22;15074;50.940;5.282;2022-12-07T10:35:22;8.10;99.90
27667;DHT22;15074;50.940;5.282;2022-12-07T10:37:49;8.20;99.90
27667;DHT22;15074;50.940;5.282;2022-12-07T10:40:28;7.80;99.90
27667;DHT22;15074;50.940;5.282;2022-12-07T10:43:24;7.80;99.90
27667;DHT22;15074;50.940;5.282;2022-12-07T10:48:54;7.50;99.90
27667;DHT22;15074;50.940;5.282;2022-12-07T10:51:48;7.40;99.90
27667;DHT22;15074;50.940;5.282;2022-12-07T10:54:25;7.20;99.90
27667;DHT22;15074;50.940;5.282;2022-12-07T10:59:49;6.90;99.90
27667;DHT22;15074;50.940;5.282;2022-12-07T11:10:46;7.40;99.90
27667;DHT22;15074;50.940;5.282;2022-12-07T11:16:40;7.60;99.90
27667;DHT22;15074;50.940;5.282;2022-12-07T11:21:48;7.90;99.90
27667;DHT22;15074;50.940;5.282;2022-12-07T11:24:20;8.00;99.90
27667;DHT22;15074;50.940;5.282;2022-12-07T11:30:03;8.50;99.90
27667;DHT22;15074;50.940;5.282;2022-12-07T11:33:33;8.60;99.90
27667;DHT22;15074;50.940;5.282;2022-12-07T11:36:24;8.70;99.90
27667;DHT22;15074;50.940;5.282;2022-12-07T11:38:48;8.50;99.90
27667;DHT22;15074;50.940;5.282;2022-12-07T11:41:22;8.40;99.90
27667;DHT22;15074;50.940;5.282;2022-12-07T11:46:50;8.40;99.90
27667;DHT22;15074;50.940;5.282;2022-12-07T11:49:29;8.20;99.90
27667;DHT22;15074;50.940;5.282;2022-12-07T11:52:04;8.00;99.90
27667;DHT22;15074;50.940;5.282;2022-12-07T11:54:41;7.70;99.90
27667;DHT22;15074;50.940;5.282;2022-12-07T11:57:16;7.50;99.90
27667;DHT22;15074;50.940;5.282;2022-12-07T11:59:48;7.60;99.90
27667;DHT22;15074;50.940;5.282;2022-12-07T12:02:24;7.60;99.90
27667;DHT22;15074;50.940;5.282;2022-12-07T12:05:16;7.60;99.90
27667;DHT22;15074;50.940;5.282;2022-12-07T12:07:43;7.60;99.90
27667;DHT22;15074;50.940;5.282;2022-12-07T12:10:15;7.60;99.90
27667;DHT22;15074;50.940;5.282;2022-12-07T12:21:06;7.80;99.90
27667;DHT22;15074;50.940;5.282;2022-12-07T12:26:03;8.00;99.90
27667;DHT22;15074;50.940;5.282;2022-12-07T12:28:54;8.20;99.90
27667;DHT22;15074;50.940;5.282;2022-12-07T12:33:48;8.20;99.90
27667;DHT22;15074;50.940;5.282;2022-12-07T12:47:37;7.70;99.90
27667;DHT22;15074;50.940;5.282;2022-12-07T12:50:25;7.70;99.90
27667;DHT22;15074;50.940;5.282;2022-12-07T12:55:57;8.00;99.90
27667;DHT22;15074;50.940;5.282;2022-12-07T13:01:30;8.20;99.90
27667;DHT22;15074;50.940;5.282;2022-12-07T13:03:34;8.30;99.90
27667;DHT22;15074;50.940;5.282;2022-12-07T13:06:34;8.30;99.90
27667;DHT22;15074;50.940;5.282;2022-12-07T13:09:01;8.20;99.90
27667;DHT22;15074;50.940;5.282;2022-12-07T13:16:59;7.90;99.90
27667;DHT22;15074;50.940;5.282;2022-12-07T13:24:57;7.60;99.90
27667;DHT22;15074;50.940;5.282;2022-12-07T13:27:25;7.60;99.90
27667;DHT22;15074;50.940;5.282;2022-12-07T13:29:52;7.60;99.90
27667;DHT22;15074;50.940;5.282;2022-12-07T13:32:28;7.60;99.90
27667;DHT22;15074;50.940;5.282;2022-12-07T13:34:55;7.70;99.90
27667;DHT22;15074;50.940;5.282;2022-12-07T13:37:33;7.80;99.90
27667;DHT22;15074;50.940;5.282;2022-12-07T13:39:59;7.80;99.90
27667;DHT22;15074;50.940;5.282;2022-12-07T13:42:33;7.70;99.90
27667;DHT22;15074;50.940;5.282;2022-12-07T13:47:48;7.80;99.90
27667;DHT22;15074;50.940;5.282;2022-12-07T13:50:25;7.90;99.90
27667;DHT22;15074;50.940;5.282;2022-12-07T13:52:55;7.80;99.90
27667;DHT22;15074;50.940;5.282;2022-12-07T13:55:21;7.90;99.90
27667;DHT22;15074;50.940;5.282;2022-12-07T13:57:52;7.80;99.90
27667;DHT22;15074;50.940;5.282;2022-12-07T14:00:21;7.70;99.90
27667;DHT22;15074;50.940;5.282;2022-12-07T14:05:37;7.50;99.90
27667;DHT22;15074;50.940;5.282;2022-12-07T14:08:06;7.60;99.90
27667;DHT22;15074;50.940;5.282;2022-12-07T14:15:56;7.70;99.90
27667;DHT22;15074;50.940;5.282;2022-12-07T14:18:34;7.70;99.90
27667;DHT22;15074;50.940;5.282;2022-12-07T14:21:06;7.70;99.90
27667;DHT22;15074;50.940;5.282;2022-12-07T14:23:32;7.70;99.90
27667;DHT22;15074;50.940;5.282;2022-12-07T14:26:15;7.80;99.90
27667;DHT22;15074;50.940;5.282;2022-12-07T14:28:42;7.80;99.90
27667;DHT22;15074;50.940;5.282;2022-12-07T14:31:16;7.80;99.90
27667;DHT22;15074;50.940;5.282;2022-12-07T14:33:42;7.80;99.90
27667;DHT22;15074;50.940;5.282;2022-12-07T14:36:12;7.80;99.90
27667;DHT22;15074;50.940;5.282;2022-12-07T14:38:38;7.70;99.90
27667;DHT22;15074;50.940;5.282;2022-12-07T14:41:05;7.70;99.90
27667;DHT22;15074;50.940;5.282;2022-12-07T14:43:50;7.60;99.90
27667;DHT22;15074;50.940;5.282;2022-12-07T14:46:16;7.60;99.90
27667;DHT22;15074;50.940;5.282;2022-12-07T14:48:41;7.50;99.90
27667;DHT22;15074;50.940;5.282;2022-12-07T14:51:10;7.60;99.90
27667;DHT22;15074;50.940;5.282;2022-12-07T14:53:44;7.70;99.90
27667;DHT22;15074;50.940;5.282;2022-12-07T14:56:11;7.50;99.90
27667;DHT22;15074;50.940;5.282;2022-12-07T14:58:37;7.50;99.90
27667;DHT22;15074;50.940;5.282;2022-12-07T15:01:03;7.40;99.90
27667;DHT22;15074;50.940;5.282;2022-12-07T15:03:34;7.40;99.90
27667;DHT22;15074;50.940;5.282;2022-12-07T15:06:00;7.30;99.90
27667;DHT22;15074;50.940;5.282;2022-12-07T15:08:26;7.30;99.90
27667;DHT22;15074;50.940;5.282;2022-12-07T15:10:52;7.30;99.90
27667;DHT22;15074;50.940;5.282;2022-12-07T15:13:18;7.30;99.90
27667;DHT22;15074;50.940;5.282;2022-12-07T15:16:02;7.30;99.90
27667;DHT22;15074;50.940;5.282;2022-12-07T15:18:28;7.30;99.90
27667;DHT22;15074;50.940;5.282;2022-12-07T15:20:53;7.20;99.90
27667;DHT22;15074;50.940;5.282;2022-12-07T15:23:19;7.20;99.90
27667;DHT22;15074;50.940;5.282;2022-12-07T15:25:47;7.20;99.90
27667;DHT22;15074;50.940;5.282;2022-12-07T15:28:14;7.10;99.90
27667;DHT22;15074;50.940;5.282;2022-12-07T15:30:41;7.00;99.90
27667;DHT22;15074;50.940;5.282;2022-12-07T15:33:08;7.10;99.90
27667;DHT22;15074;50.940;5.282;2022-12-07T15:35:39;7.00;99.90
27667;DHT22;15074;50.940;5.282;2022-12-07T15:38:05;6.80;99.90
27667;DHT22;15074;50.940;5.282;2022-12-07T15:40:30;6.60;99.90
27667;DHT22;15074;50.940;5.282;2022-12-07T15:42:57;6.60;99.90
27667;DHT22;15074;50.940;5.282;2022-12-07T15:45:22;6.60;99.90
27667;DHT22;15074;50.940;5.282;2022-12-07T15:47:48;6.60;99.90
27667;DHT22;15074;50.940;5.282;2022-12-07T15:50:15;6.40;99.90
27667;DHT22;15074;50.940;5.282;2022-12-07T15:52:41;6.40;99.90
27667;DHT22;15074;50.940;5.282;2022-12-07T15:55:09;6.30;99.90
27667;DHT22;15074;50.940;5.282;2022-12-07T15:57:36;6.20;99.90
27667;DHT22;15074;50.940;5.282;2022-12-07T16:00:07;6.20;99.90
27667;DHT22;15074;50.940;5.282;2022-12-07T16:02:34;6.10;99.90
27667;DHT22;15074;50.940;5.282;2022-12-07T16:05:00;6.10;99.90
27667;DHT22;15074;50.940;5.282;2022-12-07T16:07:25;6.00;99.90
27667;DHT22;15074;50.940;5.282;2022-12-07T16:09:52;5.90;99.90
27667;DHT22;15074;50.940;5.282;2022-12-07T16:12:18;5.80;99.90
27667;DHT22;15074;50.940;5.282;2022-12-07T16:14:44;5.80;99.90
27667;DHT22;15074;50.940;5.282;2022-12-07T16:17:11;5.80;99.90
27667;DHT22;15074;50.940;5.282;2022-12-07T16:19:37;5.70;99.90
27667;DHT22;15074;50.940;5.282;2022-12-07T16:22:03;5.80;99.90
27667;DHT22;15074;50.940;5.282;2022-12-07T16:24:29;5.70;99.90
27667;DHT22;15074;50.940;5.282;2022-12-07T16:26:55;5.70;99.90
27667;DHT22;15074;50.940;5.282;2022-12-07T16:29:22;5.60;99.90
27667;DHT22;15074;50.940;5.282;2022-12-07T16:31:48;5.60;99.90
27667;DHT22;15074;50.940;5.282;2022-12-07T16:34:14;5.60;99.90
27667;DHT22;15074;50.940;5.282;2022-12-07T16:36:39;5.60;99.90
27667;DHT22;15074;50.940;5.282;2022-12-07T16:39:05;5.60;99.90
27667;DHT22;15074;50.940;5.282;2022-12-07T16:41:31;5.60;99.90
27667;DHT22;15074;50.940;5.282;2022-12-07T16:43:59;5.50;99.90
27667;DHT22;15074;50.940;5.282;2022-12-07T16:46:27;5.50;99.90
27667;DHT22;15074;50.940;5.282;2022-12-07T16:48:52;5.50;99.90
27667;DHT22;15074;50.940;5.282;2022-12-07T16:51:18;5.60;99.90
27667;DHT22;15074;50.940;5.282;2022-12-07T16:53:43;5.60;99.90
27667;DHT22;15074;50.940;5.282;2022-12-07T16:56:11;5.60;99.90
27667;DHT22;15074;50.940;5.282;2022-12-07T16:58:37;5.50;99.90
27667;DHT22;15074;50.940;5.282;2022-12-07T17:01:14;5.50;99.90
27667;DHT22;15074;50.940;5.282;2022-12-07T17:03:40;5.50;99.90
27667;DHT22;15074;50.940;5.282;2022-12-07T17:06:18;5.50;99.90
27667;DHT22;15074;50.940;5.282;2022-12-07T17:08:45;5.50;99.90
27667;DHT22;15074;50.940;5.282;2022-12-07T17:11:12;5.40;99.90
27667;DHT22;15074;50.940;5.282;2022-12-07T17:13:38;5.40;99.90
27667;DHT22;15074;50.940;5.282;2022-12-07T17:16:23;5.40;99.90
27667;DHT22;15074;50.940;5.282;2022-12-07T17:18:48;5.40;99.90
27667;DHT22;15074;50.940;5.282;2022-12-07T17:21:14;5.40;99.90
27667;DHT22;15074;50.940;5.282;2022-12-07T17:23:39;5.40;99.90
27667;DHT22;15074;50.940;5.282;2022-12-07T17:26:07;5.40;99.90
27667;DHT22;15074;50.940;5.282;2022-12-07T17:28:34;5.30;99.90
27667;DHT22;15074;50.940;5.282;2022-12-07T17:31:00;5.40;99.90
27667;DHT22;15074;50.940;5.282;2022-12-07T17:33:26;5.30;99.90
27667;DHT22;15074;50.940;5.282;2022-12-07T17:35:52;5.30;99.90
27667;DHT22;15074;50.940;5.282;2022-12-07T17:38:17;5.30;99.90
27667;DHT22;15074;50.940;5.282;2022-12-07T17:40:43;5.20;99.90
27667;DHT22;15074;50.940;5.282;2022-12-07T17:43:09;5.20;99.90
27667;DHT22;15074;50.940;5.282;2022-12-07T17:45:36;5.10;99.90